Time;durP1;ratioP1;P1;durP2;ratioP2;P2;SDS_P1;SDS_P2;PMS_P1;PMS_P2;Temp;Humidity;BMP_temperature;BMP_pressure;BME280_temperature;BME280_humidity;BME280_pressure;Samples;Min_cycle;Max_cycle;Signal;HPM_P1;HPM_P2
2022/06/04 00:01:45;;;;;;;10.70;8.18;;;;;;;-141.50;100.00;63355.56;5064924;28;20090;-81
2022/06/04 00:04:13;;;;;;;13.02;8.25;;;;;;;-141.50;100.00;63355.56;5071680;28;20059;-80
2022/06/04 00:06:41;;;;;;;14.18;8.15;;;;;;;-141.50;100.00;63355.56;5071112;28;20105;-81
2022/06/04 00:09:15;;;;;;;11.13;8.40;;;;;;;-141.50;100.00;63355.56;5070194;28;20423;-81
2022/06/04 00:17:16;;;;;;;13.02;9.20;;;;;;;-141.50;100.00;63355.56;5072117;28;20053;-80
2022/06/04 00:19:43;;;;;;;14.02;10.32;;;;;;;-141.50;100.00;63355.56;5071954;28;20084;-81
2022/06/04 00:22:09;;;;;;;12.43;10.05;;;;;;;-141.50;100.00;63355.56;5070261;28;20498;-82
2022/06/04 00:24:36;;;;;;;14.30;9.60;;;;;;;-141.50;100.00;63355.56;5071773;28;20057;-81
2022/06/04 00:27:03;;;;;;;12.88;9.38;;;;;;;-141.50;100.00;63355.56;5058461;28;20547;-77
2022/06/04 00:29:31;;;;;;;13.50;10.27;;;;;;;-141.50;100.00;63355.56;5076078;28;20491;-79
2022/06/04 00:32:00;;;;;;;13.25;10.50;;;;;;;-141.50;100.00;63355.56;5086376;28;20098;-79
2022/06/04 00:34:27;;;;;;;12.88;10.27;;;;;;;-141.50;100.00;63355.56;5091145;28;20076;-80
2022/06/04 00:36:54;;;;;;;12.40;10.05;;;;;;;-141.50;100.00;63355.56;5093760;28;20054;-80
2022/06/04 00:39:21;;;;;;;12.50;9.70;;;;;;;-141.50;100.00;63355.56;5085736;28;20136;-80
2022/06/04 00:41:58;;;;;;;10.40;9.27;;;;;;;-141.50;100.00;63355.56;5083054;28;20048;-80
2022/06/04 00:44:30;;;;;;;11.57;9.32;;;;;;;-141.50;100.00;63355.56;5082954;28;20045;-80
2022/06/04 00:47:26;;;;;;;13.57;9.95;;;;;;;-141.50;100.00;63355.56;5055610;28;20049;-81
2022/06/04 00:49:53;;;;;;;11.27;10.03;;;;;;;-141.50;100.00;63355.56;5073368;28;20075;-80
2022/06/04 00:52:20;;;;;;;14.27;10.13;;;;;;;-141.50;100.00;63355.56;5056697;28;20052;-79
2022/06/04 00:54:53;;;;;;;15.05;9.73;;;;;;;-141.50;100.00;63355.56;5057094;28;20419;-79
2022/06/04 00:57:50;;;;;;;12.98;10.32;;;;;;;-141.50;100.00;63355.56;5071963;28;20052;-81
2022/06/04 01:00:22;;;;;;;16.55;10.40;;;;;;;-141.50;100.00;63355.56;5053838;28;20310;-81
2022/06/04 01:03:18;;;;;;;13.32;9.27;;;;;;;-141.50;100.00;63355.56;5052842;28;20076;-81
2022/06/04 01:06:08;;;;;;;13.73;10.02;;;;;;;-141.50;100.00;63355.56;5071104;28;20067;-81
2022/06/04 01:08:54;;;;;;;12.00;9.52;;;;;;;-141.50;100.00;63355.56;5071725;28;20053;-81
2022/06/04 01:12:10;;;;;;;11.10;9.00;;;;;;;-141.50;100.00;63355.56;5052991;28;20048;-81
2022/06/04 01:14:47;;;;;;;10.70;8.88;;;;;;;-141.50;100.00;63355.56;5071077;28;20048;-81
2022/06/04 01:17:35;;;;;;;13.95;9.25;;;;;;;-141.50;100.00;63355.56;5054138;28;20052;-81
2022/06/04 01:20:28;;;;;;;9.23;8.27;;;;;;;-141.50;100.00;63355.56;5071356;28;20080;-82
2022/06/04 01:23:04;;;;;;;11.82;8.55;;;;;;;-141.50;100.00;63355.56;5070590;28;20130;-80
2022/06/04 01:25:46;;;;;;;11.85;8.98;;;;;;;-141.50;100.00;63355.56;5070262;28;20079;-80
2022/06/04 01:28:16;;;;;;;11.73;9.13;;;;;;;-141.50;100.00;63355.56;5070788;28;20526;-81
2022/06/04 01:30:50;;;;;;;10.75;9.07;;;;;;;-141.50;100.00;63355.56;5069693;28;20052;-80
2022/06/04 01:33:22;;;;;;;10.60;9.50;;;;;;;-141.50;100.00;63355.56;5070215;28;20113;-81
2022/06/04 01:36:01;;;;;;;12.13;8.98;;;;;;;-141.50;100.00;63355.56;5070004;28;20052;-81
2022/06/04 01:38:40;;;;;;;11.90;9.40;;;;;;;-141.50;100.00;63355.56;5069446;28;20052;-80
2022/06/04 01:41:16;;;;;;;22.13;9.88;;;;;;;-141.50;100.00;63355.56;5051804;28;20506;-81
2022/06/04 01:43:50;;;;;;;11.73;8.68;;;;;;;-141.50;100.00;63355.56;5069716;28;20135;-81
2022/06/04 01:46:25;;;;;;;11.02;9.05;;;;;;;-141.50;100.00;63355.56;5070236;28;20590;-81
2022/06/04 01:48:56;;;;;;;10.57;8.70;;;;;;;-141.50;100.00;63355.56;5069379;28;20624;-81
2022/06/04 01:51:28;;;;;;;13.43;8.63;;;;;;;-141.50;100.00;63355.56;5070754;28;20151;-81
2022/06/04 01:54:01;;;;;;;13.07;8.65;;;;;;;-141.50;100.00;63355.56;5052351;28;20135;-81
2022/06/04 01:56:34;;;;;;;10.60;7.80;;;;;;;-141.50;100.00;63355.56;5070305;28;20135;-80
2022/06/04 01:59:09;;;;;;;10.10;8.73;;;;;;;-141.50;100.00;63355.56;5070387;28;20053;-80
2022/06/04 02:01:38;;;;;;;10.48;9.18;;;;;;;-141.50;100.00;63355.56;5070714;28;20087;-81
2022/06/04 02:04:10;;;;;;;9.80;8.80;;;;;;;-141.50;100.00;63355.56;5053111;28;20067;-82
2022/06/04 02:07:29;;;;;;;12.27;9.38;;;;;;;-141.50;100.00;63355.56;5058164;28;20088;-81
2022/06/04 02:09:36;;;;;;;10.57;8.88;;;;;;;-141.50;100.00;63355.56;5087810;28;20044;-81
2022/06/04 02:12:05;;;;;;;12.73;9.65;;;;;;;-141.50;100.00;63355.56;5067477;28;20417;-82
2022/06/04 02:14:36;;;;;;;14.50;10.05;;;;;;;-141.50;100.00;63355.56;5086729;28;20056;-83
2022/06/04 02:17:08;;;;;;;11.95;9.63;;;;;;;-141.50;100.00;63355.56;5076456;28;20522;-81
2022/06/04 02:19:35;;;;;;;13.80;9.10;;;;;;;-141.50;100.00;63355.56;5054070;28;20179;-82
2022/06/04 02:22:02;;;;;;;10.43;8.95;;;;;;;-141.50;100.00;63355.56;5069876;28;20068;-81
2022/06/04 02:24:29;;;;;;;12.50;9.70;;;;;;;-141.50;100.00;63355.56;5071074;28;20457;-81
2022/06/04 02:26:56;;;;;;;14.05;10.13;;;;;;;-141.50;100.00;63355.56;5075276;28;20444;-82
2022/06/04 02:29:22;;;;;;;17.05;9.82;;;;;;;-141.50;100.00;63355.56;5077080;28;20148;-81
2022/06/04 02:32:16;;;;;;;14.65;10.80;;;;;;;-141.50;100.00;63355.56;5054336;28;20072;-81
2022/06/04 02:34:57;;;;;;;12.77;9.90;;;;;;;-141.50;100.00;63355.56;5063029;28;20093;-80
2022/06/04 02:37:31;;;;;;;11.77;10.57;;;;;;;-141.50;100.00;63355.56;5079069;28;20633;-80
2022/06/04 02:40:16;;;;;;;14.63;11.95;;;;;;;-141.50;100.00;63355.56;5061334;28;20526;-80
2022/06/04 02:43:04;;;;;;;15.85;12.38;;;;;;;-141.50;100.00;63355.56;5056843;28;20055;-80
2022/06/04 02:45:39;;;;;;;13.40;11.85;;;;;;;-141.50;100.00;63355.56;5072559;28;20048;-81
2022/06/04 02:48:10;;;;;;;14.48;11.45;;;;;;;-141.50;100.00;63355.56;5074792;28;20048;-80
2022/06/04 02:50:40;;;;;;;12.68;11.15;;;;;;;-141.50;100.00;63355.56;5073648;28;20091;-80
2022/06/04 02:53:08;;;;;;;11.85;10.23;;;;;;;-141.50;100.00;63355.56;5054557;28;20053;-80
2022/06/04 02:55:41;;;;;;;13.13;11.23;;;;;;;-141.50;100.00;63355.56;5068271;28;20387;-81
2022/06/04 02:58:13;;;;;;;16.02;12.70;;;;;;;-141.50;100.00;63355.56;5069811;28;20131;-80
2022/06/04 03:00:49;;;;;;;15.00;12.07;;;;;;;-141.50;100.00;63355.56;5067812;28;20101;-80
2022/06/04 03:03:16;;;;;;;14.32;12.60;;;;;;;-141.50;100.00;63355.56;5069370;28;20057;-80
2022/06/04 03:06:00;;;;;;;14.82;12.13;;;;;;;-141.50;100.00;63355.56;5070611;28;20051;-81
2022/06/04 03:08:33;;;;;;;12.57;10.63;;;;;;;-141.50;100.00;63355.56;5051621;28;20052;-81
2022/06/04 03:11:00;;;;;;;16.98;11.82;;;;;;;-141.50;100.00;63355.56;5072024;28;20098;-82
2022/06/04 03:13:29;;;;;;;13.55;12.15;;;;;;;-141.50;100.00;63355.56;5073811;28;20139;-81
2022/06/04 03:15:59;;;;;;;14.73;12.13;;;;;;;-141.50;100.00;63355.56;5074617;28;20076;-80
2022/06/04 03:18:28;;;;;;;14.50;12.38;;;;;;;-141.50;100.00;63355.56;5079151;28;20090;-79
2022/06/04 03:20:57;;;;;;;17.13;12.20;;;;;;;-141.50;100.00;63355.56;5063539;28;20045;-80
2022/06/04 03:23:26;;;;;;;13.90;12.15;;;;;;;-141.50;100.00;63355.56;5061669;28;20045;-79
2022/06/04 03:25:53;;;;;;;16.40;12.35;;;;;;;-141.50;100.00;63355.56;5059601;28;20550;-79
2022/06/04 03:28:20;;;;;;;18.42;12.65;;;;;;;-141.50;100.00;63355.56;5060708;28;20491;-81
2022/06/04 03:30:46;;;;;;;17.05;12.63;;;;;;;-141.50;100.00;63355.56;5055909;28;20056;-80
2022/06/04 03:33:13;;;;;;;13.93;11.60;;;;;;;-141.50;100.00;63355.56;5072490;28;20175;-81
2022/06/04 03:35:42;;;;;;;15.15;11.90;;;;;;;-141.50;100.00;63355.56;5072925;28;20549;-81
2022/06/04 03:38:09;;;;;;;17.10;11.38;;;;;;;-141.50;100.00;63355.56;5073209;28;20076;-80
2022/06/04 03:40:36;;;;;;;16.40;11.73;;;;;;;-141.50;100.00;63355.56;5054986;28;20088;-80
2022/06/04 03:43:03;;;;;;;14.90;11.77;;;;;;;-141.50;100.00;63355.56;5072436;28;20478;-81
2022/06/04 03:45:32;;;;;;;14.55;11.57;;;;;;;-141.50;100.00;63355.56;5073328;28;20099;-79
2022/06/04 03:47:58;;;;;;;16.73;12.25;;;;;;;-141.50;100.00;63355.56;5072310;28;20076;-79
2022/06/04 03:50:25;;;;;;;17.40;12.30;;;;;;;-141.50;100.00;63355.56;5054469;28;20056;-80
2022/06/04 03:52:53;;;;;;;15.15;12.50;;;;;;;-141.50;100.00;63355.56;5072540;28;20620;-79
2022/06/04 03:55:20;;;;;;;17.77;13.27;;;;;;;-141.50;100.00;63355.56;5072148;28;20052;-80
2022/06/04 03:57:49;;;;;;;17.70;13.60;;;;;;;-141.50;100.00;63355.56;5071783;28;20053;-79
2022/06/04 04:00:38;;;;;;;18.58;13.32;;;;;;;-141.50;100.00;63355.56;5069772;28;20487;-79
2022/06/04 04:03:10;;;;;;;18.60;12.88;;;;;;;-141.50;100.00;63355.56;5071254;28;20055;-79
2022/06/04 04:05:41;;;;;;;15.45;13.38;;;;;;;-141.50;100.00;63355.56;5072751;28;20053;-80
2022/06/04 04:08:09;;;;;;;15.57;12.75;;;;;;;-141.50;100.00;63355.56;5072904;28;20083;-80
2022/06/04 04:10:39;;;;;;;19.05;12.65;;;;;;;-141.50;100.00;63355.56;5072302;28;20056;-81
2022/06/04 04:13:12;;;;;;;15.73;12.48;;;;;;;-141.50;100.00;63355.56;5056430;28;20076;-81
2022/06/04 04:15:39;;;;;;;17.63;13.65;;;;;;;-141.50;100.00;63355.56;5055539;28;20103;-79
2022/06/04 04:18:06;;;;;;;16.45;12.45;;;;;;;-141.50;100.00;63355.56;5071699;28;20052;-79
2022/06/04 04:20:36;;;;;;;14.80;12.68;;;;;;;-141.50;100.00;63355.56;5053427;28;20048;-79
2022/06/04 04:23:04;;;;;;;14.98;11.50;;;;;;;-141.50;100.00;63355.56;5053478;28;20106;-80
2022/06/04 04:25:31;;;;;;;16.33;12.80;;;;;;;-141.50;100.00;63355.56;5071811;28;20091;-80
2022/06/04 04:28:02;;;;;;;14.38;12.40;;;;;;;-141.50;100.00;63355.56;5072556;28;20666;-79
2022/06/04 04:30:31;;;;;;;14.73;12.45;;;;;;;-141.50;100.00;63355.56;5074170;28;20076;-81
2022/06/04 04:32:58;;;;;;;16.52;11.07;;;;;;;-141.50;100.00;63355.56;5073405;28;20087;-81
2022/06/04 04:35:29;;;;;;;13.60;11.13;;;;;;;-141.50;100.00;63355.56;5054907;28;20132;-81
2022/06/04 04:37:56;;;;;;;15.98;11.65;;;;;;;-141.50;100.00;63355.56;5073738;28;20425;-79
2022/06/04 04:40:25;;;;;;;15.02;11.25;;;;;;;-141.50;100.00;63355.56;5075125;28;20075;-79
2022/06/04 04:42:52;;;;;;;17.48;11.75;;;;;;;-141.50;100.00;63355.56;5080606;28;20068;-79
2022/06/04 04:45:21;;;;;;;17.38;12.15;;;;;;;-141.50;100.00;63355.56;5086513;28;20063;-79
2022/06/04 04:47:48;;;;;;;16.42;13.32;;;;;;;-141.50;100.00;63355.56;5078677;28;20087;-78
2022/06/04 04:50:19;;;;;;;18.65;13.02;;;;;;;-141.50;100.00;63355.56;5089545;28;20072;-80
2022/06/04 04:52:50;;;;;;;16.58;13.32;;;;;;;-141.50;100.00;63355.56;5075821;28;20071;-78
2022/06/04 04:55:17;;;;;;;18.13;14.07;;;;;;;-141.50;100.00;63355.56;5087141;28;20049;-81
2022/06/04 04:57:43;;;;;;;17.55;13.40;;;;;;;-141.50;100.00;63355.56;5093457;28;20426;-81
2022/06/04 05:00:11;;;;;;;21.20;14.75;;;;;;;-141.50;100.00;63355.56;5077760;28;20044;-81
2022/06/04 05:02:38;;;;;;;14.98;12.80;;;;;;;-141.50;100.00;63355.56;5087481;28;20088;-81
2022/06/04 05:05:09;;;;;;;14.65;11.68;;;;;;;-141.50;100.00;63355.56;5073518;28;20093;-81
2022/06/04 05:07:36;;;;;;;12.05;10.80;;;;;;;-141.50;100.00;63355.56;5069934;28;20091;-80
2022/06/04 05:10:03;;;;;;;16.92;11.07;;;;;;;-141.50;100.00;63355.56;5079171;28;20048;-82
2022/06/04 05:12:31;;;;;;;15.43;11.10;;;;;;;-141.50;100.00;63355.56;5078582;28;20506;-80
2022/06/04 05:14:58;;;;;;;15.35;10.93;;;;;;;-141.50;100.00;63355.56;5052434;28;20080;-80
2022/06/04 05:17:25;;;;;;;14.80;11.00;;;;;;;-141.50;100.00;63355.56;5070391;28;20231;-80
2022/06/04 05:19:51;;;;;;;14.27;10.00;;;;;;;-141.50;100.00;63355.56;5082995;28;20044;-80
2022/06/04 05:22:18;;;;;;;12.27;8.95;;;;;;;-141.50;100.00;63355.56;5079951;28;20125;-80
2022/06/04 05:24:45;;;;;;;12.18;9.43;;;;;;;-141.50;100.00;63355.56;5080177;28;20101;-81
2022/06/04 05:27:11;;;;;;;14.98;9.65;;;;;;;-141.50;100.00;63355.56;5078271;28;20075;-79
2022/06/04 05:29:40;;;;;;;14.43;10.20;;;;;;;-141.50;100.00;63355.56;5055019;28;20106;-80
2022/06/04 05:32:10;;;;;;;11.65;9.07;;;;;;;-141.50;100.00;63355.56;5051875;28;20068;-81
2022/06/04 05:34:36;;;;;;;9.80;8.25;;;;;;;-141.50;100.00;63355.56;5079133;28;20083;-80
2022/06/04 05:37:03;;;;;;;11.95;8.00;;;;;;;-141.50;100.00;63355.56;5079542;28;20084;-81
2022/06/04 05:39:31;;;;;;;12.00;8.77;;;;;;;-141.50;100.00;63355.56;5075944;28;20101;-78
2022/06/04 05:41:59;;;;;;;15.98;8.40;;;;;;;-141.50;100.00;63355.56;5077461;28;20059;-80
2022/06/04 05:44:28;;;;;;;10.98;8.30;;;;;;;-141.50;100.00;63355.56;5054822;28;20048;-79
2022/06/04 05:46:54;;;;;;;10.90;8.98;;;;;;;-141.50;100.00;63355.56;5081977;28;20230;-78
2022/06/04 05:49:24;;;;;;;13.38;9.27;;;;;;;-141.50;100.00;63355.56;5067576;28;20110;-79
2022/06/04 05:51:51;;;;;;;14.32;9.18;;;;;;;-141.50;100.00;63355.56;5066485;28;20044;-80
2022/06/04 05:54:19;;;;;;;15.25;9.90;;;;;;;-141.50;100.00;63355.56;5066097;28;20056;-80
2022/06/04 05:56:49;;;;;;;14.07;9.80;;;;;;;-141.50;100.00;63355.56;5066809;28;20823;-80
2022/06/04 05:59:18;;;;;;;14.52;9.65;;;;;;;-141.50;100.00;63355.56;5048455;28;20472;-80
2022/06/04 06:01:45;;;;;;;13.75;9.05;;;;;;;-141.50;100.00;63355.56;5048053;28;20514;-81
2022/06/04 06:04:20;;;;;;;10.50;9.25;;;;;;;-141.50;100.00;63355.56;5067261;28;20052;-80
2022/06/04 06:06:50;;;;;;;12.63;9.20;;;;;;;-141.50;100.00;63355.56;5065665;28;20510;-81
2022/06/04 06:09:21;;;;;;;17.90;9.85;;;;;;;-141.50;100.00;63355.56;5064921;28;20127;-81
2022/06/04 06:11:48;;;;;;;11.68;9.27;;;;;;;-141.50;100.00;63355.56;5065691;28;20652;-80
2022/06/04 06:14:16;;;;;;;16.35;9.55;;;;;;;-141.50;100.00;63355.56;5046349;28;20616;-80
2022/06/04 06:16:45;;;;;;;15.00;10.65;;;;;;;-141.50;100.00;63355.56;5048389;28;20087;-78
2022/06/04 06:19:14;;;;;;;16.77;11.50;;;;;;;-141.50;100.00;63355.56;5052212;28;20117;-79
2022/06/04 06:21:42;;;;;;;12.98;11.18;;;;;;;-141.50;100.00;63355.56;5078391;28;20055;-78
2022/06/04 06:24:10;;;;;;;16.58;10.95;;;;;;;-141.50;100.00;63355.56;5075120;28;20137;-77
2022/06/04 06:26:47;;;;;;;16.23;11.30;;;;;;;-141.50;100.00;63355.56;5070507;28;20049;-78
2022/06/04 06:29:15;;;;;;;13.55;11.93;;;;;;;-141.50;100.00;63355.56;5070296;28;20098;-80
2022/06/04 06:31:42;;;;;;;14.52;12.00;;;;;;;-141.50;100.00;63355.56;5076682;28;20056;-82
2022/06/04 06:34:09;;;;;;;16.30;12.50;;;;;;;-141.50;100.00;63355.56;5052830;28;20058;-79
2022/06/04 06:36:36;;;;;;;15.70;13.00;;;;;;;-141.50;100.00;63355.56;5067349;28;20072;-82
2022/06/04 06:39:03;;;;;;;16.90;13.15;;;;;;;-141.50;100.00;63355.56;5070728;28;20059;-80
2022/06/04 06:41:29;;;;;;;15.48;12.70;;;;;;;-141.50;100.00;63355.56;5070179;28;20091;-79
2022/06/04 06:43:56;;;;;;;20.02;12.60;;;;;;;-141.50;100.00;63355.56;5057829;28;20086;-84
2022/06/04 06:46:31;;;;;;;14.88;12.52;;;;;;;-141.50;100.00;63355.56;5076882;28;20055;-81
2022/06/04 06:49:02;;;;;;;19.53;13.03;;;;;;;-141.50;100.00;63355.56;5062390;28;20131;-80
2022/06/04 06:51:35;;;;;;;16.52;13.70;;;;;;;-141.50;100.00;63355.56;5073668;28;20310;-80
2022/06/04 06:54:03;;;;;;;18.02;13.43;;;;;;;-141.50;100.00;63355.56;5077877;28;20763;-79
2022/06/04 06:56:33;;;;;;;16.65;13.60;;;;;;;-141.50;100.00;63355.56;5088289;28;20161;-79
2022/06/04 06:59:01;;;;;;;19.17;13.98;;;;;;;-141.50;100.00;63355.56;5073811;28;20586;-80
2022/06/04 07:01:28;;;;;;;18.08;13.45;;;;;;;-141.50;100.00;63355.56;5030100;28;20106;-80
2022/06/04 07:03:57;;;;;;;19.13;13.32;;;;;;;-141.50;100.00;63355.56;5047557;28;20045;-80
2022/06/04 07:06:33;;;;;;;20.02;13.57;;;;;;;-141.50;100.00;63355.56;5057966;28;20459;-79
2022/06/04 07:09:01;;;;;;;21.30;13.57;;;;;;;-141.50;100.00;63355.56;5070569;28;20055;-80
2022/06/04 07:11:28;;;;;;;14.00;12.23;;;;;;;-141.50;100.00;63355.56;5071474;28;20285;-81
2022/06/04 07:13:55;;;;;;;17.00;12.05;;;;;;;-141.50;100.00;63355.56;5075292;28;20049;-79
2022/06/04 07:16:22;;;;;;;20.77;13.13;;;;;;;-141.50;100.00;63355.56;5074164;28;20381;-78
2022/06/04 07:18:49;;;;;;;16.00;11.57;;;;;;;-141.50;100.00;63355.56;5057253;28;20056;-78
2022/06/04 07:21:16;;;;;;;16.67;11.05;;;;;;;-141.50;100.00;63355.56;5074567;28;20075;-83
2022/06/04 07:23:43;;;;;;;13.27;10.90;;;;;;;-141.50;100.00;63355.56;5070701;28;20056;-81
2022/06/04 07:26:11;;;;;;;17.05;11.00;;;;;;;-141.50;100.00;63355.56;5050993;28;20131;-81
2022/06/04 07:28:40;;;;;;;13.88;10.93;;;;;;;-141.50;100.00;63355.56;5048684;28;20128;-83
2022/06/04 07:31:09;;;;;;;19.90;12.07;;;;;;;-141.50;100.00;63355.56;5059597;28;20113;-80
2022/06/04 07:33:36;;;;;;;17.90;11.63;;;;;;;-141.50;100.00;63355.56;5054923;28;20060;-81
2022/06/04 07:36:03;;;;;;;16.23;13.10;;;;;;;-141.50;100.00;63355.56;5052792;28;20114;-81
2022/06/04 07:38:30;;;;;;;15.18;12.65;;;;;;;-141.50;100.00;63355.56;5074124;28;20129;-81
2022/06/04 07:40:59;;;;;;;16.52;12.50;;;;;;;-141.50;100.00;63355.56;5050211;28;20598;-81
2022/06/04 07:43:26;;;;;;;16.02;13.05;;;;;;;-141.50;100.00;63355.56;5060316;28;20048;-78
2022/06/04 07:45:53;;;;;;;16.30;11.88;;;;;;;-141.50;100.00;63355.56;5046300;28;20059;-81
2022/06/04 07:48:19;;;;;;;14.18;11.63;;;;;;;-141.50;100.00;63355.56;5031169;28;20048;-80
2022/06/04 07:50:54;;;;;;;12.52;11.23;;;;;;;-141.50;100.00;63355.56;5059391;28;20057;-81
2022/06/04 07:53:20;;;;;;;14.07;11.18;;;;;;;-141.50;100.00;63355.56;5066020;28;20497;-81
2022/06/04 07:55:47;;;;;;;13.43;10.50;;;;;;;-141.50;100.00;63355.56;5049394;28;20081;-82
2022/06/04 07:58:13;;;;;;;12.80;10.23;;;;;;;-141.50;100.00;63355.56;5051517;28;20109;-78
2022/06/04 08:00:43;;;;;;;12.10;10.23;;;;;;;-141.50;100.00;63355.56;5049513;28;20056;-81
2022/06/04 08:03:09;;;;;;;10.73;9.50;;;;;;;-141.50;100.00;63355.56;5067837;28;20071;-79
2022/06/04 08:05:39;;;;;;;10.77;9.20;;;;;;;-141.50;100.00;63355.56;5050331;28;20061;-81
2022/06/04 08:08:09;;;;;;;16.95;10.38;;;;;;;-141.50;100.00;63355.56;5052822;28;20056;-79
2022/06/04 08:10:35;;;;;;;14.50;9.50;;;;;;;-141.50;100.00;63355.56;5053020;28;20600;-80
2022/06/04 08:13:02;;;;;;;13.00;8.75;;;;;;;-141.50;100.00;63355.56;5054619;28;20096;-79
2022/06/04 08:15:29;;;;;;;15.20;8.60;;;;;;;-141.50;100.00;63355.56;5068165;28;20147;-82
2022/06/04 08:17:55;;;;;;;10.75;8.48;;;;;;;-141.50;100.00;63355.56;5069493;28;20524;-81
2022/06/04 08:20:22;;;;;;;9.27;7.50;;;;;;;-141.50;100.00;63355.56;5069330;28;20060;-80
2022/06/04 08:22:49;;;;;;;12.50;8.02;;;;;;;-141.50;100.00;63355.56;5068181;28;20111;-79
2022/06/04 08:25:16;;;;;;;11.88;7.80;;;;;;;-141.50;100.00;63355.56;5068680;28;20048;-80
2022/06/04 08:27:44;;;;;;;6.68;6.03;;;;;;;-141.50;100.00;63355.56;5070145;28;20667;-80
2022/06/04 08:30:13;;;;;;;7.93;7.07;;;;;;;-141.50;100.00;63355.56;5050168;28;20048;-83
2022/06/04 08:32:40;;;;;;;11.40;6.30;;;;;;;-141.50;100.00;63355.56;5051811;28;20132;-83
2022/06/04 08:35:07;;;;;;;9.20;7.03;;;;;;;-141.50;100.00;63355.56;5070422;28;20681;-78
2022/06/04 08:37:34;;;;;;;6.68;5.78;;;;;;;-141.50;100.00;63355.56;5070314;28;20083;-82
2022/06/04 08:40:01;;;;;;;7.82;6.22;;;;;;;-141.50;100.00;63355.56;5068249;28;20514;-81
2022/06/04 08:42:51;;;;;;;8.20;5.70;;;;;;;-141.50;100.00;63355.56;5069615;28;20063;-77
2022/06/04 08:45:17;;;;;;;8.70;5.50;;;;;;;-141.50;100.00;63355.56;5070837;28;20052;-78
2022/06/04 08:47:52;;;;;;;6.72;5.15;;;;;;;-141.50;100.00;63355.56;5063084;28;20117;-80
2022/06/04 08:50:21;;;;;;;9.70;5.20;;;;;;;-141.50;100.00;63355.56;5073654;28;20053;-79
2022/06/04 08:52:52;;;;;;;6.57;5.53;;;;;;;-141.50;100.00;63355.56;5071995;28;20056;-79
2022/06/04 08:58:56;;;;;;;6.32;4.60;;;;;;;-141.50;100.00;63355.56;5065010;28;20660;-78
2022/06/04 09:01:26;;;;;;;5.60;4.85;;;;;;;-141.50;100.00;63355.56;5054678;28;20079;-82
2022/06/04 09:04:12;;;;;;;7.60;4.90;;;;;;;-141.50;100.00;63355.56;5050779;28;20139;-82
2022/06/04 09:06:59;;;;;;;6.32;4.80;;;;;;;-141.50;100.00;63355.56;5077085;28;20029;-81
2022/06/04 09:09:41;;;;;;;5.95;3.45;;;;;;;-141.50;100.00;63355.56;5072278;28;20029;-80
2022/06/04 09:12:35;;;;;;;7.35;4.05;;;;;;;-141.50;100.00;63355.56;5082489;28;20053;-81
2022/06/04 09:15:29;;;;;;;4.90;3.67;;;;;;;-141.50;100.00;63355.56;5052667;28;20557;-81
2022/06/04 09:18:04;;;;;;;5.20;3.67;;;;;;;-141.50;100.00;63355.56;5047653;28;20052;-82
2022/06/04 09:21:00;;;;;;;11.40;4.90;;;;;;;-141.50;100.00;63355.56;5047620;28;20330;-81
2022/06/04 09:23:26;;;;;;;4.93;3.63;;;;;;;-141.50;100.00;63355.56;5050158;28;20048;-81
2022/06/04 09:26:12;;;;;;;4.95;3.83;;;;;;;-141.50;100.00;63355.56;5054107;28;20064;-80
2022/06/04 09:29:04;;;;;;;5.60;3.80;;;;;;;-141.50;100.00;63355.56;5070200;28;20106;-82
2022/06/04 09:31:54;;;;;;;6.20;3.83;;;;;;;-141.50;100.00;63355.56;5048432;28;20088;-81
2022/06/04 09:34:32;;;;;;;4.28;3.78;;;;;;;-141.50;100.00;63355.56;5066121;28;20127;-81
2022/06/04 09:36:59;;;;;;;5.43;3.97;;;;;;;-141.50;100.00;63355.56;5054749;28;20088;-84
2022/06/04 09:39:31;;;;;;;6.78;3.60;;;;;;;-141.50;100.00;63355.56;5053899;28;20106;-82
2022/06/04 09:42:01;;;;;;;9.13;4.03;;;;;;;-141.50;100.00;63355.56;5045352;28;20076;-80
2022/06/04 09:44:30;;;;;;;4.40;3.28;;;;;;;-141.50;100.00;63355.56;5064422;28;20129;-81
2022/06/04 09:47:23;;;;;;;3.92;3.17;;;;;;;-141.50;100.00;63355.56;5035010;28;20095;-70
2022/06/04 09:49:57;;;;;;;4.13;3.20;;;;;;;-141.50;100.00;63355.56;5048362;28;20060;-71
2022/06/04 09:52:46;;;;;;;6.80;3.20;;;;;;;-141.50;100.00;63355.56;5046962;28;20148;-70
2022/06/04 09:55:15;;;;;;;5.53;3.28;;;;;;;-141.50;100.00;63355.56;5045984;28;20075;-70
2022/06/04 09:57:53;;;;;;;5.28;3.58;;;;;;;-141.50;100.00;63355.56;5066405;28;20143;-70
2022/06/04 10:00:23;;;;;;;3.92;3.35;;;;;;;-141.50;100.00;63355.56;5055552;28;20075;-69
2022/06/04 10:03:04;;;;;;;9.07;3.58;;;;;;;-141.50;100.00;63355.56;5047456;28;20134;-69
2022/06/04 10:05:32;;;;;;;6.55;3.90;;;;;;;-141.50;100.00;63355.56;5071817;28;20044;-70
2022/06/04 10:07:59;;;;;;;5.93;3.75;;;;;;;-141.50;100.00;63355.56;5027940;28;20481;-72
2022/06/04 10:10:42;;;;;;;6.53;4.00;;;;;;;-141.50;100.00;63355.56;5046021;28;20107;-76
2022/06/04 10:13:42;;;;;;;4.07;3.60;;;;;;;-141.50;100.00;63355.56;5051214;28;20085;-70
2022/06/04 10:16:37;;;;;;;4.18;3.78;;;;;;;-141.50;100.00;63355.56;5065006;28;20571;-71
2022/06/04 10:19:14;;;;;;;6.93;4.00;;;;;;;-141.50;100.00;63355.56;5057558;28;20045;-71
2022/06/04 10:21:43;;;;;;;8.43;3.63;;;;;;;-141.50;100.00;63355.56;5030626;28;20096;-71
2022/06/04 10:24:19;;;;;;;4.40;3.35;;;;;;;-141.50;100.00;63355.56;5037705;28;20050;-72
2022/06/04 10:27:01;;;;;;;4.95;3.00;;;;;;;-141.50;100.00;63355.56;5028006;28;20099;-71
2022/06/04 10:29:46;;;;;;;7.10;3.25;;;;;;;-141.50;100.00;63355.56;5056647;28;20052;-72
2022/06/04 10:32:38;;;;;;;4.25;2.85;;;;;;;-141.50;100.00;63355.56;5082638;28;20078;-75
2022/06/04 10:35:49;;;;;;;4.40;2.92;;;;;;;-141.50;100.00;63355.56;5087979;28;20079;-73
2022/06/04 10:38:55;;;;;;;4.40;2.67;;;;;;;-141.50;100.00;63355.56;5082092;28;20088;-71
2022/06/04 10:41:43;;;;;;;4.10;3.30;;;;;;;-141.50;100.00;63355.56;5040250;28;20039;-70
2022/06/04 10:44:31;;;;;;;4.80;2.75;;;;;;;-141.50;100.00;63355.56;5061308;28;20083;-69
2022/06/04 10:47:23;;;;;;;6.50;3.15;;;;;;;-141.50;100.00;63355.56;5061329;28;20060;-79
2022/06/04 10:50:01;;;;;;;4.50;3.28;;;;;;;-141.50;100.00;63355.56;5059497;28;20048;-80
2022/06/04 10:52:45;;;;;;;5.47;3.10;;;;;;;-141.50;100.00;63355.56;5079064;28;20064;-78
2022/06/04 10:55:39;;;;;;;5.30;3.63;;;;;;;-141.50;100.00;63355.56;5070074;28;20051;-81
2022/06/04 10:58:32;;;;;;;4.97;3.22;;;;;;;-141.50;100.00;63355.56;5084019;28;20075;-83
2022/06/04 11:01:31;;;;;;;4.38;3.10;;;;;;;-141.50;100.00;63355.56;5065165;28;20052;-83
2022/06/04 11:04:18;;;;;;;9.02;3.53;;;;;;;-141.50;100.00;63355.56;5093716;28;20044;-79
2022/06/04 11:06:49;;;;;;;4.70;3.20;;;;;;;-141.50;100.00;63355.56;5105558;28;20056;-81
2022/06/04 11:09:23;;;;;;;5.10;3.55;;;;;;;-141.50;100.00;63355.56;5107652;28;20258;-81
2022/06/04 11:11:55;;;;;;;3.58;3.28;;;;;;;-141.50;100.00;63355.56;5096998;28;20086;-79
2022/06/04 11:14:29;;;;;;;4.45;3.78;;;;;;;-141.50;100.00;63355.56;5067531;28;20045;-81
2022/06/04 11:17:25;;;;;;;5.20;3.97;;;;;;;-141.50;100.00;63355.56;5057044;28;20485;-80
2022/06/04 11:19:55;;;;;;;5.20;3.80;;;;;;;-141.50;100.00;63355.56;5068542;28;20086;-82
2022/06/04 11:22:25;;;;;;;5.25;3.72;;;;;;;-141.50;100.00;63355.56;5051133;28;20091;-84
2022/06/04 11:25:04;;;;;;;6.15;3.60;;;;;;;-141.50;100.00;63355.56;5070185;28;20075;-79
2022/06/04 11:27:36;;;;;;;4.55;4.13;;;;;;;-141.50;100.00;63355.56;5051678;28;20102;-82
2022/06/04 11:30:12;;;;;;;6.68;4.15;;;;;;;-141.50;100.00;63355.56;5069555;28;20079;-79
2022/06/04 11:33:13;;;;;;;7.97;3.78;;;;;;;-141.50;100.00;63355.56;5072743;28;20056;-79
2022/06/04 11:36:18;;;;;;;5.90;4.43;;;;;;;-141.50;100.00;63355.56;5074476;28;20052;-82